Time;durP1;ratioP1;P1;durP2;ratioP2;P2;SDS_P1;SDS_P2;PMS_P1;PMS_P2;Temp;Humidity;BMP_temperature;BMP_pressure;BME280_temperature;BME280_humidity;BME280_pressure;Samples;Min_cycle;Max_cycle;Signal;HPM_P1;HPM_P2
2023/07/01 00:01:45;;;;;;;5.95;3.40;;;;;;;16.85;100.00;98349.00;5059170;28;20223;-77
2023/07/01 00:04:12;;;;;;;8.48;3.58;;;;;;;16.71;100.00;98340.31;5051984;28;20031;-77
2023/07/01 00:06:41;;;;;;;5.82;3.35;;;;;;;16.64;100.00;98335.06;5047497;28;20501;-77
2023/07/01 00:09:08;;;;;;;9.02;3.90;;;;;;;16.55;100.00;98346.66;5053915;28;20032;-77
2023/07/01 00:11:33;;;;;;;5.35;3.10;;;;;;;16.43;100.00;98344.06;5037699;28;20023;-77
2023/07/01 00:13:58;;;;;;;6.65;3.58;;;;;;;16.14;100.00;98314.19;5053816;28;20127;-77
2023/07/01 00:16:24;;;;;;;6.25;3.53;;;;;;;16.25;100.00;98345.19;5063160;28;20025;-78
2023/07/01 00:18:49;;;;;;;6.55;3.67;;;;;;;16.02;100.00;98310.75;5035149;28;20386;-77
2023/07/01 00:21:14;;;;;;;6.35;3.55;;;;;;;16.02;100.00;98335.28;5044521;28;20504;-78
2023/07/01 00:23:40;;;;;;;6.28;3.67;;;;;;;15.94;100.00;98325.63;5049929;28;20025;-77
2023/07/01 00:26:05;;;;;;;6.47;3.17;;;;;;;16.07;100.00;98337.28;5061710;28;20020;-77
2023/07/01 00:28:31;;;;;;;6.28;3.47;;;;;;;16.21;100.00;98336.66;5074878;28;20486;-77
2023/07/01 00:30:56;;;;;;;7.47;3.53;;;;;;;16.25;100.00;98331.53;5073979;28;20032;-77
2023/07/01 00:33:21;;;;;;;4.90;3.33;;;;;;;16.30;100.00;98320.69;5056498;28;20039;-77
2023/07/01 00:35:47;;;;;;;9.68;3.55;;;;;;;16.30;100.00;98323.41;5052884;28;20056;-78
2023/07/01 00:38:12;;;;;;;7.65;3.53;;;;;;;16.28;100.00;98316.56;5051322;28;20190;-77
2023/07/01 00:40:37;;;;;;;5.88;3.30;;;;;;;16.43;100.00;98339.44;5052646;28;20018;-77
2023/07/01 00:43:03;;;;;;;7.95;3.90;;;;;;;16.48;100.00;98335.94;5052780;28;20032;-78
2023/07/01 00:45:28;;;;;;;5.90;3.47;;;;;;;16.27;100.00;98318.47;5053513;28;20020;-77
2023/07/01 00:47:54;;;;;;;7.43;3.58;;;;;;;16.29;100.00;98326.38;5043535;28;20028;-78
2023/07/01 00:50:19;;;;;;;7.35;3.53;;;;;;;16.24;100.00;98329.06;5054324;28;20028;-77
2023/07/01 00:52:46;;;;;;;10.85;3.55;;;;;;;16.08;100.00;98322.53;5048190;28;20055;-77
2023/07/01 00:55:12;;;;;;;11.32;3.95;;;;;;;16.03;100.00;98336.94;5057652;28;20435;-77
2023/07/01 00:57:37;;;;;;;10.00;3.53;;;;;;;15.95;100.00;98342.81;5041080;28;20166;-77
2023/07/01 01:00:10;;;;;;;7.32;3.33;;;;;;;15.69;100.00;98322.50;5069055;28;20462;-78
2023/07/01 01:03:04;;;;;;;9.68;3.95;;;;;;;15.79;100.00;98330.84;5052121;28;20116;-78
2023/07/01 01:05:47;;;;;;;8.63;4.03;;;;;;;15.59;100.00;98327.75;5047583;28;20037;-78
2023/07/01 01:08:28;;;;;;;8.20;3.80;;;;;;;15.60;100.00;98335.69;5053556;28;20056;-78
2023/07/01 01:10:56;;;;;;;9.02;3.83;;;;;;;15.53;100.00;98340.47;5047403;28;20020;-76
2023/07/01 01:13:24;;;;;;;6.65;3.33;;;;;;;15.42;100.00;98330.47;5037365;28;20028;-76
2023/07/01 01:15:50;;;;;;;7.97;3.13;;;;;;;15.39;100.00;98326.34;5053248;28;20025;-76
2023/07/01 01:18:17;;;;;;;5.55;2.85;;;;;;;15.21;100.00;98315.66;5067822;28;20024;-76
2023/07/01 01:20:43;;;;;;;3.75;2.80;;;;;;;15.28;100.00;98329.97;5054680;28;20051;-76
2023/07/01 01:23:13;;;;;;;5.35;3.28;;;;;;;15.29;100.00;98335.16;5042619;28;20021;-76
2023/07/01 01:26:05;;;;;;;4.43;3.05;;;;;;;15.23;100.00;98338.88;5051911;28;20119;-76
2023/07/01 01:28:30;;;;;;;5.47;3.30;;;;;;;15.13;100.00;98316.88;5046285;28;20479;-76
2023/07/01 01:30:56;;;;;;;5.45;2.83;;;;;;;15.06;100.00;98325.22;5048509;28;20028;-76
2023/07/01 01:33:21;;;;;;;5.57;2.95;;;;;;;14.94;100.00;98324.44;5045301;28;20492;-76
2023/07/01 01:35:46;;;;;;;8.60;3.53;;;;;;;14.93;100.00;98324.69;5059623;28;20034;-77
2023/07/01 01:38:23;;;;;;;6.47;2.78;;;;;;;14.79;100.00;98322.25;5055413;28;20025;-77
2023/07/01 01:41:16;;;;;;;6.18;2.65;;;;;;;14.78;100.00;98327.94;5052965;28;20029;-76
2023/07/01 01:44:05;;;;;;;7.18;2.55;;;;;;;14.65;100.00;98310.81;5056902;28;20032;-77
2023/07/01 01:46:31;;;;;;;;;;;;;;;14.73;100.00;98339.56;5053492;28;20028;-76
2023/07/01 01:49:03;;;;;;;3.83;2.35;;;;;;;14.61;100.00;98328.69;5056717;28;19920;-77
2023/07/01 01:51:31;;;;;;;5.15;2.50;;;;;;;14.64;100.00;98341.00;5052736;28;20024;-76
2023/07/01 01:53:58;;;;;;;6.18;2.67;;;;;;;14.43;100.00;98304.31;5055098;28;20485;-76
2023/07/01 01:56:25;;;;;;;5.20;2.80;;;;;;;14.52;100.00;98319.22;5052191;28;20628;-77
2023/07/01 01:58:51;;;;;;;6.78;2.88;;;;;;;14.58;100.00;98325.63;5055851;28;20060;-77
2023/07/01 02:01:16;;;;;;;5.53;2.70;;;;;;;14.55;100.00;98332.38;5070086;28;20055;-76
2023/07/01 02:03:44;;;;;;;5.97;3.13;;;;;;;14.49;100.00;98330.59;5048654;28;20035;-76
2023/07/01 02:06:10;;;;;;;5.07;2.67;;;;;;;14.31;100.00;98323.41;5048659;28;20146;-77
2023/07/01 02:08:35;;;;;;;5.07;2.63;;;;;;;14.32;100.00;98324.25;5064897;28;20056;-76
2023/07/01 02:11:01;;;;;;;6.25;3.10;;;;;;;14.41;100.00;98334.53;5066296;28;20032;-76
2023/07/01 02:13:26;;;;;;;4.75;2.78;;;;;;;14.03;100.00;98284.19;5072466;28;20381;-76
2023/07/01 02:15:51;;;;;;;7.65;3.30;;;;;;;14.18;100.00;98310.06;5055565;28;20037;-76
2023/07/01 02:18:16;;;;;;;7.35;2.95;;;;;;;14.18;100.00;98315.50;5063154;28;20517;-77
2023/07/01 02:20:42;;;;;;;9.02;2.72;;;;;;;14.20;100.00;98326.97;5060677;28;20036;-77
2023/07/01 02:23:08;;;;;;;8.10;2.65;;;;;;;14.28;100.00;98334.78;5049618;28;20033;-77
2023/07/01 02:25:33;;;;;;;6.03;3.15;;;;;;;14.16;100.00;98318.47;5063565;28;20047;-77
2023/07/01 02:27:58;;;;;;;4.70;2.60;;;;;;;13.88;100.00;98283.00;5057110;28;20027;-78
2023/07/01 02:30:23;;;;;;;7.43;2.90;;;;;;;13.91;100.00;98298.84;5053844;28;20103;-77
2023/07/01 02:32:49;;;;;;;4.30;2.33;;;;;;;14.11;100.00;98321.06;5056672;28;20125;-77
2023/07/01 02:35:14;;;;;;;4.28;3.05;;;;;;;13.78;100.00;98287.16;5062149;28;20021;-77
2023/07/01 02:37:40;;;;;;;9.60;2.75;;;;;;;13.81;100.00;98302.19;5054575;28;20153;-78
2023/07/01 02:40:06;;;;;;;6.90;2.50;;;;;;;13.90;100.00;98311.63;5061235;28;20119;-77
2023/07/01 02:42:31;;;;;;;6.40;2.45;;;;;;;13.89;100.00;98298.28;5049284;28;20017;-77
2023/07/01 02:44:57;;;;;;;7.95;3.13;;;;;;;13.86;100.00;98298.72;5067254;28;20032;-76
2023/07/01 02:47:22;;;;;;;6.53;2.55;;;;;;;13.94;100.00;98296.50;5066177;28;20056;-78
2023/07/01 02:49:48;;;;;;;5.32;2.60;;;;;;;13.85;100.00;98278.88;5057178;28;20119;-77
2023/07/01 02:52:14;;;;;;;3.85;2.55;;;;;;;13.93;100.00;98310.31;5093293;28;20025;-77
2023/07/01 02:54:39;;;;;;;6.20;2.92;;;;;;;13.63;100.00;98273.22;5073443;28;20090;-78
2023/07/01 02:57:09;;;;;;;3.83;2.38;;;;;;;13.80;100.00;98314.91;5056644;28;20513;-79
2023/07/01 02:59:36;;;;;;;4.28;2.85;;;;;;;13.82;100.00;98317.41;5053831;28;20112;-78
2023/07/01 03:02:02;;;;;;;7.72;3.00;;;;;;;13.73;100.00;98297.91;5044896;28;20418;-78
2023/07/01 03:04:27;;;;;;;4.70;2.45;;;;;;;13.76;100.00;98300.16;5053993;28;20512;-78
2023/07/01 03:06:52;;;;;;;5.07;2.20;;;;;;;13.73;100.00;98295.19;5054095;28;20025;-78
2023/07/01 03:09:18;;;;;;;3.97;2.15;;;;;;;13.74;100.00;98312.34;5048537;28;20486;-78
2023/07/01 03:11:43;;;;;;;6.15;2.58;;;;;;;13.63;100.00;98307.72;5047225;28;20016;-79
2023/07/01 03:14:09;;;;;;;7.03;2.45;;;;;;;13.68;100.00;98326.88;5067878;28;20543;-78
2023/07/01 03:16:34;;;;;;;5.22;2.63;;;;;;;13.61;100.00;98312.56;5053037;28;20058;-78
2023/07/01 03:19:00;;;;;;;4.40;2.53;;;;;;;13.50;100.00;98311.50;5055556;28;20020;-79
2023/07/01 03:21:26;;;;;;;4.20;2.30;;;;;;;13.57;100.00;98320.34;5053531;28;20029;-79
2023/07/01 03:23:52;;;;;;;5.45;2.50;;;;;;;13.55;100.00;98320.59;5066753;28;20572;-78
2023/07/01 03:26:17;;;;;;;7.35;2.70;;;;;;;13.47;100.00;98306.53;5052926;28;20025;-78
2023/07/01 03:28:43;;;;;;;3.60;2.30;;;;;;;13.47;100.00;98311.97;5056181;28;20250;-77
2023/07/01 03:31:08;;;;;;;3.35;2.22;;;;;;;13.44;100.00;98313.25;5053800;28;20059;-78
2023/07/01 03:33:34;;;;;;;9.48;2.60;;;;;;;13.45;100.00;98320.34;5067899;28;20029;-78
2023/07/01 03:35:59;;;;;;;5.88;2.45;;;;;;;13.34;100.00;98302.97;5066406;28;20034;-77
2023/07/01 03:38:24;;;;;;;5.95;2.50;;;;;;;13.30;100.00;98301.75;5051743;28;20020;-77
2023/07/01 03:40:50;;;;;;;9.70;2.40;;;;;;;13.36;100.00;98310.84;5049339;28;20032;-77
2023/07/01 03:43:16;;;;;;;4.85;2.63;;;;;;;13.38;100.00;98303.31;5077784;28;20025;-78
2023/07/01 03:45:41;;;;;;;4.25;2.65;;;;;;;13.33;100.00;98289.59;5047173;28;20031;-78
2023/07/01 03:48:06;;;;;;;4.03;2.15;;;;;;;13.39;100.00;98304.97;5062752;28;20033;-78
2023/07/01 03:50:32;;;;;;;4.60;2.72;;;;;;;13.35;100.00;98304.59;5064850;28;20025;-77
2023/07/01 03:52:57;;;;;;;10.65;2.63;;;;;;;13.46;100.00;98318.44;5046155;28;20470;-78
2023/07/01 03:55:22;;;;;;;5.57;2.03;;;;;;;13.36;100.00;98308.13;5085714;28;20060;-78
2023/07/01 03:57:47;;;;;;;4.75;2.45;;;;;;;13.46;100.00;98332.03;5062562;28;20024;-78
2023/07/01 04:00:19;;;;;;;6.70;2.45;;;;;;;13.37;100.00;98313.34;5047420;28;20028;-77
2023/07/01 04:02:49;;;;;;;7.75;2.97;;;;;;;13.37;100.00;98305.19;5062928;28;20025;-77
2023/07/01 04:05:15;;;;;;;6.20;2.60;;;;;;;13.34;100.00;98297.53;5056757;28;20129;-77
2023/07/01 04:07:41;;;;;;;5.25;2.20;;;;;;;13.45;100.00;98309.47;5051556;28;20032;-77
2023/07/01 04:10:08;;;;;;;3.03;2.08;;;;;;;13.55;100.00;98322.50;5041767;28;20056;-77
2023/07/01 04:12:34;;;;;;;7.18;2.40;;;;;;;13.61;100.00;98332.41;5064184;28;20025;-77
2023/07/01 04:15:00;;;;;;;3.85;2.25;;;;;;;13.43;100.00;98291.75;5054067;28;20025;-77
2023/07/01 04:17:26;;;;;;;6.03;2.35;;;;;;;13.74;100.00;98313.16;5065105;28;20027;-77
2023/07/01 04:19:52;;;;;;;5.35;2.40;;;;;;;13.75;100.00;98327.56;5055773;28;20115;-77
2023/07/01 04:22:18;;;;;;;3.88;2.42;;;;;;;13.81;100.00;98334.81;5060690;28;20470;-77
2023/07/01 04:24:44;;;;;;;4.63;2.55;;;;;;;13.74;100.00;98318.59;5062080;28;20059;-77
2023/07/01 04:27:09;;;;;;;3.88;2.30;;;;;;;13.85;100.00;98316.13;5066576;28;20021;-78
2023/07/01 04:29:34;;;;;;;4.15;2.33;;;;;;;13.89;100.00;98320.03;5071409;28;20031;-77
2023/07/01 04:31:59;;;;;;;5.57;2.42;;;;;;;14.02;100.00;98317.88;5051715;28;20032;-77
2023/07/01 04:34:25;;;;;;;3.70;2.40;;;;;;;14.14;100.00;98331.47;5046398;28;20031;-70
2023/07/01 04:36:50;;;;;;;4.97;2.53;;;;;;;14.24;100.00;98328.16;5062423;28;20043;-71
2023/07/01 04:39:15;;;;;;;5.80;2.45;;;;;;;14.23;100.00;98316.44;5045487;28;20028;-71
2023/07/01 04:41:41;;;;;;;4.50;2.40;;;;;;;14.36;100.00;98314.53;5058961;28;20130;-73
2023/07/01 04:44:06;;;;;;;4.60;2.65;;;;;;;14.37;100.00;98308.03;5041478;28;20059;-73
2023/07/01 04:46:32;;;;;;;6.15;2.47;;;;;;;14.39;100.00;98293.09;5048899;28;20029;-77
2023/07/01 04:48:59;;;;;;;3.92;2.50;;;;;;;14.54;100.00;98308.97;5049688;28;20082;-75
2023/07/01 04:51:25;;;;;;;3.45;2.42;;;;;;;14.64;100.00;98306.44;5051649;28;20162;-70
2023/07/01 04:53:50;;;;;;;4.45;2.20;;;;;;;14.78;100.00;98300.72;5067172;28;20138;-74
2023/07/01 04:56:16;;;;;;;5.93;2.28;;;;;;;14.85;100.00;98285.03;5091670;28;20078;-77
2023/07/01 04:58:41;;;;;;;7.10;2.80;;;;;;;14.94;100.00;98294.50;5073167;28;20027;-71
2023/07/01 05:01:07;;;;;;;8.25;2.67;;;;;;;15.15;100.00;98289.41;5062169;28;20029;-72
2023/07/01 05:03:32;;;;;;;5.03;2.40;;;;;;;15.26;100.00;98296.69;5070832;28;20070;-72
2023/07/01 05:05:58;;;;;;;4.32;2.40;;;;;;;15.27;100.00;98290.16;5070758;28;20119;-77
2023/07/01 05:08:23;;;;;;;7.72;2.72;;;;;;;15.42;100.00;98297.78;5049989;28;20155;-66
2023/07/01 05:10:48;;;;;;;3.30;2.15;;;;;;;15.49;100.00;98301.16;5057815;28;20044;-67
2023/07/01 05:13:14;;;;;;;4.65;2.55;;;;;;;15.54;100.00;98299.34;5057061;28;20044;-66
2023/07/01 05:15:39;;;;;;;4.25;2.60;;;;;;;15.57;100.00;98304.28;5048301;28;20021;-65
2023/07/01 05:18:04;;;;;;;5.75;2.40;;;;;;;15.70;100.00;98292.25;5051697;28;20025;-64
2023/07/01 05:20:30;;;;;;;3.60;2.47;;;;;;;15.75;100.00;98299.69;5064023;28;20037;-73
2023/07/01 05:22:57;;;;;;;7.63;2.50;;;;;;;15.83;100.00;98296.56;5053615;28;20402;-76
2023/07/01 05:25:22;;;;;;;3.20;2.20;;;;;;;16.13;100.00;98293.41;5045554;28;20738;-77
2023/07/01 05:27:47;;;;;;;5.40;2.20;;;;;;;16.43;100.00;98289.47;5044162;28;20039;-75
2023/07/01 05:30:13;;;;;;;7.20;2.20;;;;;;;16.49;100.00;98285.72;5068697;28;20500;-67
2023/07/01 05:32:38;;;;;;;4.75;2.25;;;;;;;16.74;100.00;98296.13;5059840;28;20044;-66
2023/07/01 05:35:04;;;;;;;3.75;1.90;;;;;;;16.84;100.00;98288.03;5045408;28;20036;-67
2023/07/01 05:37:29;;;;;;;3.08;2.00;;;;;;;16.74;100.00;98285.19;5066657;28;20058;-75
2023/07/01 05:39:54;;;;;;;5.05;2.20;;;;;;;16.85;100.00;98277.97;5066001;28;20382;-73
2023/07/01 05:42:20;;;;;;;6.00;2.20;;;;;;;16.92;100.00;98273.09;5047089;28;20024;-73
2023/07/01 05:44:45;;;;;;;8.90;2.78;;;;;;;16.97;100.00;98266.88;5079289;28;20474;-72
2023/07/01 05:47:10;;;;;;;4.95;2.33;;;;;;;17.29;100.00;98283.28;5066463;28;20029;-72
2023/07/01 05:49:35;;;;;;;4.97;2.25;;;;;;;17.26;100.00;98270.97;5069784;28;20052;-72
2023/07/01 05:52:01;;;;;;;5.53;1.90;;;;;;;17.30;100.00;98280.31;5071012;22;20045;-73
2023/07/01 05:54:26;;;;;;;5.72;1.85;;;;;;;17.48;100.00;98273.63;5049357;28;20051;-73
2023/07/01 05:56:51;;;;;;;4.10;1.83;;;;;;;17.64;100.00;98277.31;5051646;28;20512;-73
2023/07/01 05:59:17;;;;;;;3.50;1.98;;;;;;;17.84;100.00;98275.81;5062218;28;20079;-73
2023/07/01 06:01:42;;;;;;;4.82;2.33;;;;;;;18.04;100.00;98256.78;5041317;28;20705;-72
2023/07/01 06:04:07;;;;;;;3.60;2.10;;;;;;;18.13;100.00;98273.53;5067932;28;20119;-73
2023/07/01 06:06:32;;;;;;;3.15;1.88;;;;;;;18.47;100.00;98279.47;5070550;28;20024;-71
2023/07/01 06:08:58;;;;;;;3.25;2.05;;;;;;;18.55;100.00;98267.19;5072256;28;20032;-74
2023/07/01 06:11:23;;;;;;;3.35;1.80;;;;;;;18.60;100.00;98269.91;5070004;28;20359;-73
2023/07/01 06:13:48;;;;;;;7.03;2.00;;;;;;;18.78;100.00;98274.13;5062464;28;20024;-73
2023/07/01 06:16:14;;;;;;;6.30;1.98;;;;;;;18.97;100.00;98272.53;5051800;28;20359;-74
2023/07/01 06:18:41;;;;;;;4.63;1.95;;;;;;;18.92;100.00;98268.97;5053752;28;20401;-75
2023/07/01 06:21:06;;;;;;;4.13;1.85;;;;;;;19.01;100.00;98262.66;5069700;28;20093;-74
2023/07/01 06:23:36;;;;;;;3.97;1.30;;;;;;;19.38;100.00;98260.78;5070888;28;20067;-75
2023/07/01 06:26:02;;;;;;;3.10;1.60;;;;;;;19.26;100.00;98278.31;5054564;28;20025;-74
2023/07/01 06:28:28;;;;;;;1.75;1.25;;;;;;;19.99;100.00;98263.50;5069477;28;20385;-75
2023/07/01 06:30:53;;;;;;;4.82;1.20;;;;;;;20.64;100.00;98260.00;5070818;28;20029;-75
2023/07/01 06:33:18;;;;;;;5.53;1.45;;;;;;;21.05;100.00;98259.78;5050703;28;20034;-75
2023/07/01 06:35:44;;;;;;;4.05;1.23;;;;;;;20.75;100.00;98267.94;5072914;28;20446;-75
2023/07/01 06:38:09;;;;;;;2.05;1.13;;;;;;;20.96;100.00;98251.31;5073419;28;20024;-75
2023/07/01 06:40:35;;;;;;;9.30;1.67;;;;;;;20.90;100.00;98263.44;5053359;28;20063;-73
2023/07/01 06:43:02;;;;;;;4.60;1.45;;;;;;;21.23;100.00;98259.09;5069170;28;20040;-76
2023/07/01 06:45:28;;;;;;;4.30;1.15;;;;;;;21.81;100.00;98250.91;5052600;28;20033;-75
2023/07/01 06:47:53;;;;;;;4.97;1.52;;;;;;;21.59;100.00;98245.91;5069593;28;20101;-73
2023/07/01 06:50:18;;;;;;;8.30;2.45;;;;;;;21.89;100.00;98242.03;5073207;28;20064;-76
2023/07/01 06:52:43;;;;;;;3.30;1.17;;;;;;;22.02;100.00;98251.53;5065098;28;20173;-76
2023/07/01 06:55:09;;;;;;;5.38;1.50;;;;;;;22.95;100.00;98246.56;5054019;28;20036;-75
2023/07/01 06:57:35;;;;;;;3.70;1.10;;;;;;;24.53;89.09;98244.97;5076530;28;20024;-76
2023/07/01 07:00:00;;;;;;;4.28;1.20;;;;;;;26.67;68.83;98243.50;5075401;28;20063;-77
2023/07/01 07:02:26;;;;;;;6.50;1.50;;;;;;;27.84;59.52;98246.53;5067767;28;20097;-75
2023/07/01 07:04:52;;;;;;;4.38;1.02;;;;;;;28.38;53.90;98249.59;5051947;28;20135;-74
2023/07/01 07:07:18;;;;;;;1.80;1.20;;;;;;;28.21;54.22;98235.75;5070051;28;20100;-74
2023/07/01 07:09:44;;;;;;;6.03;1.40;;;;;;;27.88;54.43;98241.94;5061006;28;20083;-76
2023/07/01 07:12:09;;;;;;;6.03;1.48;;;;;;;28.08;51.32;98235.63;5066459;28;20119;-76
2023/07/01 07:14:34;;;;;;;5.50;1.40;;;;;;;28.05;52.36;98241.88;5072897;28;20063;-73
2023/07/01 07:17:00;;;;;;;3.50;1.10;;;;;;;28.71;50.51;98215.56;5053077;28;20040;-74
2023/07/01 07:19:25;;;;;;;3.33;1.08;;;;;;;29.83;49.65;98232.53;5054678;28;20023;-73
2023/07/01 07:21:50;;;;;;;3.88;1.10;;;;;;;28.54;47.60;98225.66;5065228;28;20547;-75
2023/07/01 07:24:16;;;;;;;5.78;1.40;;;;;;;28.92;47.55;98224.75;5066016;28;20031;-75
2023/07/01 07:26:42;;;;;;;2.72;1.10;;;;;;;29.77;48.43;98217.97;5069060;28;20103;-74
2023/07/01 07:29:07;;;;;;;2.72;1.25;;;;;;;29.04;47.06;98221.22;5067098;28;20135;-74
2023/07/01 07:31:32;;;;;;;5.03;1.02;;;;;;;29.37;49.24;98214.91;5052287;28;20111;-73
2023/07/01 07:33:58;;;;;;;5.72;1.55;;;;;;;29.57;46.90;98204.88;5061328;28;20024;-73
2023/07/01 07:36:23;;;;;;;6.50;1.20;;;;;;;28.53;48.47;98215.69;5052329;28;20024;-73
2023/07/01 07:38:48;;;;;;;2.70;1.20;;;;;;;27.99;49.37;98212.63;5072499;28;20051;-73
2023/07/01 07:41:13;;;;;;;2.78;0.95;;;;;;;26.53;53.40;98210.34;5067202;28;20470;-72
2023/07/01 07:43:39;;;;;;;6.10;1.08;;;;;;;26.77;52.46;98204.34;5072833;28;20512;-71
2023/07/01 07:46:04;;;;;;;4.95;1.20;;;;;;;26.85;52.66;98206.34;5064666;28;20028;-72
2023/07/01 07:48:29;;;;;;;2.60;1.38;;;;;;;26.26;53.41;98205.84;5063554;28;20467;-73
2023/07/01 07:50:55;;;;;;;2.55;1.00;;;;;;;26.58;54.59;98210.22;5068373;28;20021;-72
2023/07/01 07:53:21;;;;;;;3.33;1.02;;;;;;;25.10;55.87;98206.63;5067804;28;20326;-73
2023/07/01 07:55:46;;;;;;;2.80;1.02;;;;;;;26.34;54.53;98207.84;5072467;28;20024;-74
2023/07/01 07:58:13;;;;;;;5.65;1.10;;;;;;;27.47;51.69;98207.97;5039064;28;20151;-72
2023/07/01 08:00:39;;;;;;;3.70;1.00;;;;;;;27.29;52.16;98204.41;5061991;28;20074;-75
2023/07/01 08:03:04;;;;;;;2.47;1.02;;;;;;;29.45;48.58;98197.31;5071750;28;20024;-75
2023/07/01 08:05:30;;;;;;;5.00;1.20;;;;;;;29.62;48.07;98201.88;5061501;28;20056;-74
2023/07/01 08:07:55;;;;;;;4.28;1.25;;;;;;;29.74;46.73;98193.59;5056619;28;20107;-76
2023/07/01 08:10:20;;;;;;;2.97;1.23;;;;;;;29.72;46.21;98193.09;5050903;28;20090;-76
2023/07/01 08:12:46;;;;;;;6.20;1.02;;;;;;;29.72;46.07;98184.75;5050421;28;20455;-74
2023/07/01 08:15:11;;;;;;;2.40;1.00;;;;;;;32.56;42.80;98177.13;5069227;28;20132;-75
2023/07/01 08:17:36;;;;;;;3.13;0.98;;;;;;;34.52;39.09;98182.97;5067844;28;20120;-74
2023/07/01 08:20:02;;;;;;;9.65;1.13;;;;;;;34.99;37.51;98169.59;5069039;28;20080;-74
2023/07/01 08:22:27;;;;;;;5.32;1.25;;;;;;;34.87;36.67;98173.44;5048211;28;20532;-76
2023/07/01 08:24:52;;;;;;;3.77;1.27;;;;;;;34.75;36.56;98168.09;5067980;28;20102;-75
2023/07/01 08:27:18;;;;;;;3.87;0.87;;;;;;;36.85;34.46;98169.44;5047716;28;20279;-73
2023/07/01 08:29:43;;;;;;;3.28;0.93;;;;;;;37.63;32.61;98162.53;5071413;28;20278;-76
2023/07/01 08:32:10;;;;;;;2.50;0.90;;;;;;;36.36;32.49;98161.44;5067992;28;20082;-77
2023/07/01 08:34:36;;;;;;;2.67;0.93;;;;;;;36.78;33.36;98158.09;5064804;28;20736;-76
2023/07/01 08:37:01;;;;;;;2.72;0.90;;;;;;;33.91;35.43;98161.50;5061586;28;20032;-76
2023/07/01 08:39:26;;;;;;;7.95;1.10;;;;;;;34.06;34.77;98152.16;5071393;28;20396;-77
2023/07/01 08:41:56;;;;;;;7.23;1.20;;;;;;;35.22;34.57;98147.03;5071268;28;20036;-76
2023/07/01 08:44:25;;;;;;;2.92;1.00;;;;;;;35.31;34.04;98145.53;5072683;28;20701;-76
2023/07/01 08:46:52;;;;;;;4.72;0.88;;;;;;;36.15;33.10;98151.63;5065511;28;20311;-76
2023/07/01 08:49:21;;;;;;;4.07;1.07;;;;;;;35.26;33.33;98143.06;5067033;28;21181;-75
2023/07/01 08:51:48;;;;;;;2.72;0.90;;;;;;;36.60;33.18;98137.47;5055906;28;20286;-74
2023/07/01 08:54:16;;;;;;;4.63;1.00;;;;;;;34.54;34.44;98137.66;5066870;28;20079;-74
2023/07/01 08:56:41;;;;;;;3.03;1.00;;;;;;;34.74;34.35;98132.72;5052777;28;20528;-76
2023/07/01 08:59:07;;;;;;;5.90;0.82;;;;;;;34.86;34.63;98127.69;5070665;28;20028;-75
2023/07/01 09:01:33;;;;;;;2.85;1.00;;;;;;;32.69;36.58;98140.19;5058836;28;20031;-77
2023/07/01 09:04:01;;;;;;;4.28;0.88;;;;;;;36.09;34.21;98127.03;5062696;28;20723;-76
2023/07/01 09:06:27;;;;;;;5.38;1.15;;;;;;;32.05;35.70;98135.91;5067316;28;20032;-75
2023/07/01 09:08:54;;;;;;;3.05;1.00;;;;;;;31.73;36.13;98124.69;5067429;28;20620;-76
2023/07/01 09:11:19;;;;;;;2.13;1.00;;;;;;;30.57;37.62;98113.38;5053253;28;20016;-74
2023/07/01 09:13:44;;;;;;;4.25;0.80;;;;;;;30.63;37.63;98116.72;5075346;28;20399;-76
2023/07/01 09:16:10;;;;;;;1.48;0.90;;;;;;;31.74;37.43;98128.28;5065178;28;20596;-75
2023/07/01 09:18:35;;;;;;;3.72;0.75;;;;;;;31.66;36.76;98125.28;5073486;28;20028;-75
2023/07/01 09:21:01;;;;;;;3.55;0.95;;;;;;;32.84;35.72;98110.50;5056754;28;20113;-76
2023/07/01 09:23:32;;;;;;;4.00;0.90;;;;;;;33.98;34.90;98111.06;5064377;28;20032;-75
2023/07/01 09:26:06;;;;;;;2.80;0.80;;;;;;;37.12;32.26;98104.31;5048228;28;20040;-75
2023/07/01 09:28:32;;;;;;;1.27;0.85;;;;;;;36.88;31.76;98086.06;5070643;28;20031;-73
2023/07/01 09:31:01;;;;;;;2.90;1.00;;;;;;;38.85;29.95;98091.03;5069999;28;20028;-76
2023/07/01 09:33:27;;;;;;;3.35;1.20;;;;;;;32.40;34.79;98088.31;5070785;28;20028;-75
2023/07/01 09:35:57;;;;;;;3.33;1.27;;;;;;;30.57;37.49;98096.63;5065514;28;20028;-73
2023/07/01 09:38:25;;;;;;;1.80;1.20;;;;;;;31.62;35.96;98087.22;5070423;28;20166;-74
2023/07/01 09:40:50;;;;;;;1.67;0.90;;;;;;;31.99;35.58;98081.34;5048436;28;20394;-75
2023/07/01 09:43:18;;;;;;;5.38;1.20;;;;;;;32.88;33.86;98089.00;5056496;28;20066;-72
2023/07/01 09:45:54;;;;;;;5.05;1.25;;;;;;;31.44;35.12;98081.19;5070531;28;20025;-72
2023/07/01 09:48:21;;;;;;;4.75;1.20;;;;;;;30.77;36.94;98090.06;5070247;28;20487;-72
2023/07/01 09:50:48;;;;;;;2.75;1.27;;;;;;;31.33;36.51;98088.44;5047955;28;20918;-75
2023/07/01 09:53:24;;;;;;;1.70;1.10;;;;;;;32.70;34.79;98071.81;5068979;28;20020;-75
2023/07/01 09:55:50;;;;;;;2.13;1.38;;;;;;;32.70;35.26;98076.63;5059513;28;20449;-75
2023/07/01 09:58:15;;;;;;;2.42;1.33;;;;;;;31.62;36.24;98078.81;5055686;28;20033;-73
2023/07/01 10:00:41;;;;;;;2.38;1.48;;;;;;;32.04;35.44;98073.53;5067021;28;20029;-74
2023/07/01 10:03:07;;;;;;;3.20;1.73;;;;;;;30.80;36.99;98063.41;5073298;28;20028;-75
2023/07/01 10:05:36;;;;;;;3.58;1.70;;;;;;;31.91;35.90;98060.75;5067236;28;20078;-75
2023/07/01 10:08:01;;;;;;;;;;;;;;;32.84;34.02;98062.88;5074596;28;20032;-76
2023/07/01 10:10:27;;;;;;;2.72;1.58;;;;;;;30.53;36.63;98065.00;5073320;28;19920;-76
2023/07/01 10:12:55;;;;;;;4.00;1.70;;;;;;;29.31;38.95;98066.63;5069364;28;20482;-74
2023/07/01 10:15:29;;;;;;;2.83;1.70;;;;;;;28.63;40.40;98078.88;5053982;28;20027;-75
2023/07/01 10:17:54;;;;;;;3.85;1.60;;;;;;;28.01;41.43;98081.56;5062841;28;20548;-75
2023/07/01 10:20:31;;;;;;;2.92;1.50;;;;;;;28.27;41.45;98073.91;5069565;28;20115;-71
2023/07/01 10:22:58;;;;;;;2.78;1.70;;;;;;;27.93;42.45;98072.16;5071256;28;20111;-74
2023/07/01 10:25:37;;;;;;;2.50;1.60;;;;;;;27.31;43.95;98057.69;5073237;28;20028;-75
2023/07/01 10:28:07;;;;;;;3.13;1.70;;;;;;;28.59;42.71;98069.59;5052403;28;20127;-75
2023/07/01 10:30:41;;;;;;;3.75;1.80;;;;;;;28.86;41.64;98067.38;5063629;28;20029;-74
2023/07/01 10:33:27;;;;;;;2.22;1.40;;;;;;;27.97;43.58;98078.66;5065919;28;20389;-74
2023/07/01 10:36:08;;;;;;;4.47;1.50;;;;;;;28.22;43.42;98062.97;5059423;28;20028;-74
2023/07/01 10:38:36;;;;;;;4.00;1.40;;;;;;;28.54;43.60;98058.66;5077454;28;20024;-73
2023/07/01 10:41:02;;;;;;;2.75;1.40;;;;;;;27.72;43.29;98067.34;5076365;28;20099;-74
2023/07/01 10:43:32;;;;;;;4.70;1.80;;;;;;;27.54;43.37;98060.22;5074427;28;20050;-73
2023/07/01 10:46:15;;;;;;;3.22;1.40;;;;;;;27.82;43.83;98068.94;5063325;28;20036;-74
2023/07/01 10:49:03;;;;;;;3.35;2.00;;;;;;;27.72;43.29;98061.78;5070848;28;20028;-73
2023/07/01 10:51:51;;;;;;;2.67;1.60;;;;;;;28.41;42.65;98051.38;5053457;28;20525;-75
2023/07/01 10:54:37;;;;;;;2.28;1.60;;;;;;;29.07;41.44;98044.28;5067596;28;20036;-75
2023/07/01 10:57:13;;;;;;;6.57;1.70;;;;;;;29.42;41.87;98039.97;5048222;28;20100;-73
2023/07/01 10:59:39;;;;;;;3.05;1.60;;;;;;;28.76;41.57;98035.22;5072702;28;20078;-75
2023/07/01 11:02:07;;;;;;;2.25;1.40;;;;;;;28.19;42.19;98039.44;5068340;28;20025;-75
2023/07/01 11:04:54;;;;;;;5.97;1.70;;;;;;;28.00;43.52;98036.28;5066845;28;20106;-71
2023/07/01 11:07:24;;;;;;;2.50;1.48;;;;;;;28.32;42.83;98029.19;5052834;28;20024;-73
2023/07/01 11:09:49;;;;;;;4.15;1.50;;;;;;;28.11;43.05;98022.78;5073446;28;20028;-74
2023/07/01 11:12:15;;;;;;;4.88;1.70;;;;;;;28.60;41.82;98029.47;5066964;28;20031;-73
2023/07/01 11:14:41;;;;;;;2.88;1.48;;;;;;;28.00;42.91;98021.56;5069216;28;20020;-73
2023/07/01 11:17:07;;;;;;;2.67;1.55;;;;;;;28.37;42.34;98017.88;5069082;28;20024;-74
2023/07/01 11:19:32;;;;;;;3.75;1.65;;;;;;;28.63;41.66;98005.69;5062791;28;20025;-74
2023/07/01 11:21:58;;;;;;;4.03;1.85;;;;;;;27.49;42.91;98018.72;5070265;28;20082;-73
2023/07/01 11:24:23;;;;;;;3.20;1.65;;;;;;;27.98;42.75;98008.00;5079977;28;20020;-74
2023/07/01 11:26:50;;;;;;;3.03;1.55;;;;;;;28.65;42.22;98011.75;5073915;28;20099;-75
2023/07/01 11:29:16;;;;;;;4.30;2.05;;;;;;;29.85;41.50;97996.75;5071042;28;20050;-73